createdAt,value
2017-03-19T17:47:48.755Z,94.40
2017-03-19T17:48:48.125Z,94.50
2017-03-19T17:49:47.757Z,94.40
2017-03-19T17:50:47.033Z,94.30
2017-03-19T17:51:46.362Z,94.20
2017-03-19T17:52:46.420Z,94.40
2017-03-19T17:53:45.751Z,94.40
2017-03-19T17:54:45.160Z,94.60
2017-03-19T17:55:44.499Z,94.50
2017-03-19T17:56:43.855Z,94.50
2017-03-19T17:57:43.175Z,94.40
2017-03-19T17:58:42.527Z,94.40
2017-03-19T17:59:41.777Z,94.60
2017-03-19T18:00:41.057Z,94.30
2017-03-19T18:01:40.359Z,94.50
2017-03-19T18:02:39.750Z,94.40
2017-03-19T18:03:39.106Z,94.40
2017-03-19T18:04:38.443Z,94.30
2017-03-19T18:05:38.168Z,94.30
2017-03-19T18:06:37.470Z,94.30
2017-03-19T18:07:36.839Z,94.40
2017-03-19T18:08:36.999Z,94.50
2017-03-19T18:09:37.099Z,94.60
2017-03-19T18:10:36.601Z,94.50
2017-03-19T18:11:36.359Z,94.40
2017-03-19T18:12:35.702Z,94.40
2017-03-19T18:13:36.330Z,94.40
2017-03-19T18:14:35.694Z,94.50
2017-03-19T18:15:35.046Z,94.50
2017-03-19T18:16:34.361Z,94.50
2017-03-19T18:17:33.987Z,94.60
2017-03-19T18:18:33.297Z,94.60
2017-03-19T18:19:32.562Z,94.60
2017-03-19T18:20:31.841Z,94.60
2017-03-19T18:21:31.170Z,94.60
2017-03-19T18:22:30.525Z,94.50
2017-03-19T18:23:30.182Z,94.70
2017-03-19T18:24:30.245Z,94.60
2017-03-19T18:25:29.556Z,94.70
2017-03-19T18:26:28.874Z,94.60
2017-03-19T18:27:28.218Z,94.60
2017-03-19T18:28:27.544Z,94.60
2017-03-19T18:29:27.398Z,94.50
2017-03-19T18:30:26.738Z,94.40
2017-03-19T18:31:26.076Z,94.40
2017-03-19T18:32:26.158Z,94.40
2017-03-19T18:33:25.517Z,94.50
2017-03-19T18:34:24.828Z,94.50
2017-03-19T18:35:24.648Z,94.50
2017-03-19T18:36:29.276Z,94.50
2017-03-19T18:37:28.602Z,94.60
2017-03-19T18:38:27.907Z,94.50
2017-03-19T18:39:27.233Z,94.60
2017-03-19T18:40:26.901Z,94.50
2017-03-19T18:41:26.270Z,94.50
2017-03-19T18:42:25.619Z,94.70
2017-03-19T18:43:24.930Z,94.60
2017-03-19T18:44:24.307Z,94.60
2017-03-19T18:45:23.636Z,94.40
2017-03-19T18:46:23.288Z,94.60
2017-03-19T18:47:22.582Z,94.60
2017-03-19T18:48:22.045Z,94.70
2017-03-19T18:49:21.402Z,94.70
2017-03-19T18:50:20.878Z,94.70
2017-03-19T18:51:20.711Z,94.60
2017-03-19T18:52:20.359Z,94.60
2017-03-19T18:53:19.728Z,94.60
2017-03-19T18:54:19.086Z,94.60
2017-03-19T18:55:18.454Z,94.60
2017-03-19T18:56:17.712Z,94.50
2017-03-19T18:57:17.267Z,94.50
2017-03-19T18:58:18.786Z,94.60
2017-03-19T18:59:18.077Z,94.60
2017-03-19T19:00:17.401Z,94.50
2017-03-19T19:01:16.842Z,94.60
2017-03-19T19:02:16.147Z,94.60
2017-03-19T19:03:15.550Z,94.60
2017-03-19T19:04:15.247Z,94.60
2017-03-19T19:05:17.189Z,94.70
2017-03-19T19:06:16.583Z,94.60
2017-03-19T19:07:15.969Z,94.60
2017-03-19T19:08:15.281Z,94.70
2017-03-19T19:09:14.656Z,94.60
2017-03-19T19:10:14.010Z,94.70
2017-03-19T19:11:13.417Z,94.70
2017-03-19T19:12:13.001Z,94.70
2017-03-19T19:13:12.352Z,94.70
2017-03-19T19:14:11.797Z,94.60
2017-03-19T19:15:11.596Z,94.60
2017-03-19T19:16:10.911Z,94.60
2017-03-19T19:17:11.040Z,94.60
2017-03-19T19:18:10.431Z,94.80
2017-03-19T19:19:09.813Z,94.80
2017-03-19T19:20:09.176Z,94.60
2017-03-19T19:21:10.389Z,94.60
2017-03-19T19:22:09.725Z,94.90
2017-03-19T19:23:09.143Z,94.60
2017-03-19T19:24:08.722Z,94.70
2017-03-19T19:28:58.442Z,94.70
2017-03-19T19:29:57.725Z,94.90
2017-03-19T19:30:57.047Z,94.90
2017-03-19T19:31:56.598Z,95.10
2017-03-19T19:32:55.947Z,95.00
2017-03-19T19:33:55.228Z,95.00
2017-03-19T19:34:55.824Z,94.90
2017-03-19T19:35:55.274Z,94.90
2017-03-19T19:36:55.362Z,95.00
2017-03-19T19:37:55.248Z,94.90
2017-03-19T19:38:54.563Z,95.00
2017-03-19T19:39:53.851Z,95.00
2017-03-19T19:40:53.563Z,95.00
2017-03-19T19:41:52.920Z,95.00
2017-03-19T19:42:52.251Z,94.90
2017-03-19T19:43:51.552Z,94.90
2017-03-19T19:44:50.889Z,94.90
2017-03-19T19:45:50.196Z,94.90
2017-03-19T19:46:49.801Z,94.90
2017-03-19T19:47:49.155Z,94.80
2017-03-19T19:48:48.479Z,94.90
2017-03-19T19:49:47.857Z,95.00
2017-03-19T19:50:48.408Z,95.00
2017-03-19T19:51:55.738Z,95.00
2017-03-19T19:52:55.680Z,94.90
2017-03-19T19:53:55.396Z,94.90
2017-03-19T19:54:54.856Z,95.00
2017-03-19T19:55:58.786Z,94.90
2017-03-19T19:56:59.772Z,94.90
2017-03-19T19:57:59.051Z,94.90
2017-03-19T19:58:58.359Z,94.90
2017-03-19T19:59:57.784Z,95.00
2017-03-19T20:00:57.885Z,95.30
2017-03-19T20:01:57.220Z,95.00
2017-03-19T20:02:56.894Z,95.00
2017-03-19T20:03:56.214Z,94.90
2017-03-19T20:04:55.532Z,95.00
2017-03-19T20:05:54.861Z,94.90
2017-03-19T20:06:54.190Z,95.00
2017-03-19T20:07:53.528Z,95.00
2017-03-19T20:08:53.235Z,94.90
2017-03-19T20:09:52.546Z,95.00
2017-03-19T20:10:51.865Z,94.90
2017-03-19T20:11:51.260Z,94.90
2017-03-19T20:12:51.179Z,95.00
2017-03-19T20:13:50.522Z,95.00
2017-03-19T20:14:50.266Z,94.90
2017-03-19T20:15:49.572Z,95.00
2017-03-19T20:16:48.888Z,94.90
2017-03-19T20:17:48.311Z,94.90
2017-03-19T20:18:47.633Z,94.90
2017-03-19T20:19:46.994Z,94.90
2017-03-19T20:20:46.854Z,94.90
2017-03-19T20:21:46.167Z,95.00
2017-03-19T20:22:46.247Z,95.10
2017-03-19T20:23:45.766Z,95.10
2017-03-19T20:24:45.168Z,95.00
2017-03-19T20:25:44.526Z,95.10
2017-03-19T20:26:44.262Z,95.10
2017-03-19T20:27:44.366Z,95.10
2017-03-19T20:28:43.691Z,95.10
2017-03-19T20:29:43.035Z,95.10
2017-03-19T20:30:42.355Z,95.10
2017-03-19T20:31:41.677Z,95.10
2017-03-19T20:32:42.130Z,95.10
2017-03-19T20:33:41.418Z,95.10
2017-03-19T20:34:40.712Z,95.10
2017-03-19T20:35:40.209Z,95.10
2017-03-19T20:36:39.549Z,95.10
2017-03-19T20:37:38.895Z,95.10
2017-03-19T20:38:38.533Z,95.20
2017-03-19T20:39:37.858Z,95.20
2017-03-19T20:40:37.217Z,95.20
2017-03-19T20:41:36.545Z,95.20
2017-03-19T20:42:36.430Z,95.10
2017-03-19T20:43:35.799Z,95.10
2017-03-19T20:44:35.448Z,95.10
2017-03-19T20:45:34.806Z,95.10
2017-03-19T20:46:34.190Z,95.10
2017-03-19T20:47:33.594Z,95.10
2017-03-19T20:48:32.916Z,95.20
2017-03-19T20:49:32.328Z,95.20
2017-03-19T20:50:32.495Z,95.20
2017-03-19T20:51:31.803Z,95.20
2017-03-19T20:52:31.336Z,95.20
2017-03-19T20:53:30.855Z,95.30
2017-03-19T20:54:30.156Z,95.30
2017-03-19T20:55:29.485Z,95.30
2017-03-19T20:56:29.574Z,95.30
2017-03-19T20:57:28.912Z,95.20
2017-03-19T20:58:28.276Z,95.20
2017-03-19T20:59:27.543Z,95.20
2017-03-19T21:00:26.898Z,95.20
2017-03-19T21:01:26.224Z,95.30
2017-03-19T21:02:25.917Z,95.20
2017-03-19T21:03:25.299Z,95.10
2017-03-19T21:04:24.958Z,95.20
2017-03-19T21:05:24.258Z,95.20
2017-03-19T21:06:23.545Z,95.20
2017-03-19T21:07:22.862Z,95.20
2017-03-19T21:08:22.560Z,95.10
2017-03-19T21:09:22.821Z,95.10
2017-03-19T21:10:22.109Z,95.00
2017-03-19T21:11:24.332Z,95.10
2017-03-19T21:12:23.738Z,95.10
2017-03-19T21:13:23.918Z,95.20
2017-03-19T21:14:23.233Z,95.20
2017-03-19T21:15:22.875Z,95.20
2017-03-19T21:16:22.271Z,95.20
2017-03-19T21:17:22.326Z,95.10
2017-03-19T21:18:21.929Z,95.00
2017-03-19T21:19:21.653Z,95.00
2017-03-19T21:20:20.977Z,94.90
2017-03-19T21:21:20.309Z,95.00
2017-03-19T21:22:19.587Z,95.10
2017-03-19T21:23:18.955Z,95.00
2017-03-19T21:24:18.297Z,95.00
2017-03-19T21:25:18.693Z,95.10
2017-03-19T21:26:18.102Z,95.10
2017-03-19T21:27:17.418Z,95.10
2017-03-19T21:28:16.757Z,95.20
2017-03-19T21:29:16.277Z,95.10
2017-03-19T21:30:19.412Z,95.10
2017-03-19T21:31:18.715Z,95.10
2017-03-19T21:32:18.078Z,95.00
2017-03-19T21:33:17.459Z,95.00
2017-03-19T21:34:17.553Z,95.00
2017-03-19T21:35:16.860Z,95.00
2017-03-19T21:36:17.230Z,95.10
2017-03-19T21:37:16.567Z,95.10
2017-03-19T21:38:22.746Z,95.10
2017-03-19T21:39:28.566Z,95.20
2017-03-19T21:40:28.111Z,95.20
2017-03-19T21:41:27.920Z,95.20
2017-03-19T21:42:27.222Z,95.30
2017-03-19T21:43:26.494Z,95.20
2017-03-19T21:44:25.885Z,95.20
2017-03-19T21:45:26.717Z,95.20
2017-03-19T21:46:26.028Z,95.20
2017-03-19T21:47:25.804Z,95.20
2017-03-19T21:48:25.101Z,95.30
2017-03-19T21:49:24.387Z,95.20
2017-03-19T21:50:23.737Z,95.10
2017-03-19T21:51:23.067Z,95.20
2017-03-19T21:52:22.384Z,95.10
2017-03-19T21:53:22.055Z,95.20
2017-03-19T21:54:21.325Z,95.20
2017-03-19T21:55:20.686Z,95.20
2017-03-19T21:56:20.766Z,95.20
2017-03-19T21:57:20.037Z,95.50
2017-03-19T21:58:19.314Z,95.30
2017-03-19T21:59:18.924Z,95.20
2017-03-19T22:00:18.340Z,95.10
2017-03-19T22:01:17.877Z,95.20
2017-03-19T22:02:17.793Z,95.20
2017-03-19T22:03:17.974Z,95.20
2017-03-19T22:04:17.253Z,95.30
2017-03-19T22:05:17.028Z,95.20
2017-03-19T22:06:16.338Z,95.20
2017-03-19T22:07:15.758Z,95.20
2017-03-19T22:08:15.778Z,95.20
2017-03-19T22:09:15.123Z,95.20
2017-03-19T22:10:14.727Z,95.30
2017-03-19T22:11:15.333Z,95.10
2017-03-19T22:12:14.638Z,95.00
2017-03-19T22:13:14.087Z,95.10
2017-03-19T22:14:13.391Z,95.10
2017-03-19T22:15:12.701Z,95.10
2017-03-19T22:16:12.418Z,95.10
2017-03-19T22:17:12.181Z,95.20
2017-03-19T22:18:11.589Z,95.20
2017-03-19T22:19:10.895Z,95.30
2017-03-19T22:20:10.198Z,95.20
2017-03-19T22:21:11.814Z,95.20
2017-03-19T22:22:11.196Z,95.20
2017-03-19T22:23:11.745Z,95.00
2017-03-19T22:24:11.114Z,95.10
2017-03-19T22:25:12.706Z,95.10
2017-03-19T22:26:12.257Z,95.00
2017-03-19T22:27:11.936Z,95.10
2017-03-19T22:28:11.247Z,95.10
2017-03-19T22:29:10.603Z,95.60
2017-03-19T22:30:09.895Z,95.70
2017-03-19T22:31:09.235Z,95.80
2017-03-19T22:32:08.547Z,95.80
2017-03-19T22:33:08.187Z,95.70
2017-03-19T22:34:08.231Z,95.80
2017-03-19T22:35:07.538Z,95.90
2017-03-19T22:36:06.937Z,95.80
2017-03-19T22:37:08.983Z,95.80
2017-03-19T22:38:08.656Z,95.70
2017-03-19T22:39:08.185Z,95.80
2017-03-19T22:40:09.855Z,95.90
2017-03-19T22:41:09.192Z,96.00
2017-03-19T22:42:10.641Z,95.90
2017-03-19T22:43:10.734Z,96.20
2017-03-19T22:44:11.777Z,95.90
2017-03-19T22:45:11.066Z,95.80
2017-03-19T22:46:12.414Z,95.80
2017-03-19T22:47:11.797Z,95.80
2017-03-19T22:48:11.393Z,95.80
2017-03-19T22:49:10.683Z,95.90
2017-03-19T22:50:10.389Z,95.90
2017-03-19T22:51:09.685Z,95.80
2017-03-19T22:52:09.015Z,95.80
2017-03-19T22:53:08.283Z,95.80
2017-03-19T22:54:08.876Z,95.80
2017-03-19T22:55:08.160Z,95.90
2017-03-19T22:56:07.822Z,95.90
2017-03-19T22:57:07.340Z,95.90
2017-03-19T22:58:08.396Z,95.80
2017-03-19T22:59:08.395Z,95.80
2017-03-19T23:00:07.923Z,95.80
2017-03-19T23:01:07.296Z,95.70
2017-03-19T23:02:07.373Z,95.80
2017-03-19T23:03:06.696Z,95.80
2017-03-19T23:04:06.076Z,95.80
2017-03-19T23:05:05.753Z,95.80
2017-03-19T23:06:05.784Z,95.80
2017-03-19T23:07:05.103Z,95.70
2017-03-19T23:08:04.454Z,95.70
2017-03-19T23:09:04.106Z,95.70
2017-03-19T23:10:03.414Z,95.70
2017-03-19T23:11:03.036Z,95.80
2017-03-19T23:12:02.323Z,95.70
2017-03-19T23:13:01.630Z,95.70
2017-03-19T23:14:00.927Z,95.70
2017-03-19T23:15:00.355Z,95.80
2017-03-19T23:15:59.647Z,95.80
2017-03-19T23:17:02.615Z,95.80
2017-03-19T23:18:07.043Z,95.80
2017-03-19T23:19:06.357Z,95.80
2017-03-19T23:20:05.964Z,95.80
2017-03-19T23:21:05.278Z,95.70
2017-03-19T23:22:04.886Z,95.70
2017-03-19T23:23:04.213Z,95.80
2017-03-19T23:24:03.486Z,95.90
2017-03-19T23:25:02.827Z,95.80
2017-03-19T23:26:02.133Z,95.80
2017-03-19T23:27:01.425Z,95.80
2017-03-19T23:28:01.097Z,95.80
2017-03-19T23:29:00.402Z,95.80
2017-03-19T23:29:59.705Z,95.70
2017-03-19T23:30:58.995Z,95.80
2017-03-19T23:31:58.294Z,95.80
2017-03-19T23:33:04.628Z,95.80
2017-03-19T23:34:03.988Z,95.70
2017-03-19T23:35:03.293Z,95.70
2017-03-19T23:36:02.614Z,95.70
2017-03-19T23:37:01.917Z,95.50
2017-03-19T23:38:01.278Z,95.50
2017-03-19T23:39:00.940Z,95.40
2017-03-19T23:40:00.284Z,95.40
2017-03-19T23:41:00.447Z,95.50
2017-03-19T23:41:59.797Z,95.40
2017-03-19T23:42:59.144Z,95.50
2017-03-19T23:43:58.438Z,95.40
2017-03-19T23:44:58.235Z,95.30
2017-03-19T23:45:58.222Z,95.30
2017-03-19T23:46:57.508Z,95.30
2017-03-19T23:47:56.855Z,95.40
2017-03-19T23:48:56.347Z,95.50
2017-03-19T23:49:55.643Z,95.40
2017-03-19T23:50:55.298Z,95.30
2017-03-19T23:51:54.587Z,95.30
2017-03-19T23:52:53.891Z,95.40
2017-03-19T23:53:53.231Z,95.50
2017-03-19T23:54:52.537Z,95.50
2017-03-19T23:55:51.889Z,95.40
2017-03-19T23:56:51.567Z,95.30
2017-03-19T23:57:50.889Z,95.40
2017-03-19T23:58:50.492Z,95.50
2017-03-19T23:59:49.840Z,95.70
